Time;durP1;ratioP1;P1;durP2;ratioP2;P2;SDS_P1;SDS_P2;PMS_P1;PMS_P2;Temp;Humidity;BMP_temperature;BMP_pressure;BME280_temperature;BME280_humidity;BME280_pressure;Samples;Min_cycle;Max_cycle;Signal;HPM_P1;HPM_P2
2022/11/26 00:02:16;;;;;;;26.00;17.40;;;6.40;99.90;;;;;;4988256;28;20174;-71
2022/11/26 00:04:42;;;;;;;22.48;16.88;;;6.40;99.90;;;;;;5001411;28;20232;-71
2022/11/26 00:07:10;;;;;;;26.92;16.85;;;6.40;99.90;;;;;;4978624;28;20673;-71
2022/11/26 00:09:36;;;;;;;25.52;17.35;;;6.40;99.90;;;;;;4993930;28;20268;-71
2022/11/26 00:12:17;;;;;;;25.65;17.38;;;6.40;99.90;;;;;;4989862;28;20712;-71
2022/11/26 00:14:43;;;;;;;22.73;16.85;;;6.40;99.90;;;;;;4996341;28;20201;-71
2022/11/26 00:17:12;;;;;;;23.92;17.92;;;6.40;99.90;;;;;;4993295;28;20182;-71
2022/11/26 00:19:38;;;;;;;22.63;15.45;;;6.40;99.90;;;;;;4984215;28;20201;-71
2022/11/26 00:22:05;;;;;;;22.02;15.85;;;6.50;99.90;;;;;;4993176;28;20178;-71
2022/11/26 00:24:31;;;;;;;22.17;16.98;;;6.50;99.90;;;;;;4991580;28;20676;-71
2022/11/26 00:26:58;;;;;;;23.60;16.80;;;6.40;99.90;;;;;;4988709;28;20185;-70
2022/11/26 00:29:24;;;;;;;24.25;16.92;;;6.40;99.90;;;;;;4989625;28;20213;-70
2022/11/26 00:31:50;;;;;;;19.38;14.10;;;6.50;99.90;;;;;;4989368;28;20212;-71
2022/11/26 00:34:15;;;;;;;22.17;16.70;;;6.50;99.90;;;;;;4988562;28;20198;-71
2022/11/26 00:36:43;;;;;;;20.08;11.60;;;6.50;99.90;;;;;;4987381;28;20189;-70
2022/11/26 00:39:20;;;;;;;23.17;17.02;;;6.50;99.90;;;;;;4991716;28;20688;-71
2022/11/26 00:41:50;;;;;;;23.70;18.60;;;6.50;99.90;;;;;;4995826;28;20201;-71
2022/11/26 00:44:23;;;;;;;23.88;15.85;;;6.40;99.90;;;;;;4995687;28;20190;-71
2022/11/26 00:46:49;;;;;;;18.92;16.33;;;6.30;99.90;;;;;;4987786;28;20209;-71
2022/11/26 00:49:16;;;;;;;20.58;16.40;;;6.40;99.90;;;;;;4999696;28;20545;-72
2022/11/26 00:51:42;;;;;;;22.92;17.55;;;6.40;99.90;;;;;;4992990;28;20178;-72
2022/11/26 00:54:13;;;;;;;19.40;15.52;;;6.40;99.90;;;;;;4987381;28;20264;-72
2022/11/26 00:56:39;;;;;;;21.48;16.08;;;6.30;99.90;;;;;;4984228;28;20623;-71
2022/11/26 00:59:05;;;;;;;25.45;16.67;;;6.20;99.90;;;;;;4981657;28;20264;-72
2022/11/26 01:01:31;;;;;;;28.00;18.17;;;6.30;99.90;;;;;;4984881;28;20202;-72
2022/11/26 01:03:58;;;;;;;19.83;15.52;;;6.30;99.90;;;;;;4987440;28;20184;-72
2022/11/26 01:06:27;;;;;;;20.55;16.45;;;6.20;99.90;;;;;;4982729;28;20212;-71
2022/11/26 01:08:53;;;;;;;18.77;15.60;;;6.20;99.90;;;;;;4986173;28;21190;-71
2022/11/26 01:11:21;;;;;;;20.98;17.25;;;6.20;99.90;;;;;;4986775;28;20183;-71
2022/11/26 01:13:49;;;;;;;25.58;16.80;;;6.10;99.90;;;;;;4984113;28;20181;-72
2022/11/26 01:16:30;;;;;;;19.40;15.32;;;6.10;99.90;;;;;;4992074;28;20321;-72
2022/11/26 01:18:57;;;;;;;20.60;16.33;;;6.10;99.90;;;;;;4995593;28;20292;-72
2022/11/26 01:21:25;;;;;;;27.27;18.08;;;6.20;99.90;;;;;;4992566;28;20184;-72
2022/11/26 01:23:50;;;;;;;19.63;16.00;;;6.30;99.90;;;;;;5004263;28;20174;-72
2022/11/26 01:26:19;;;;;;;19.23;15.90;;;6.30;99.90;;;;;;4998262;28;20220;-71
2022/11/26 01:28:45;;;;;;;21.23;16.90;;;6.20;99.90;;;;;;4986924;28;20257;-73
2022/11/26 01:31:24;;;;;;;23.38;16.80;;;6.20;99.90;;;;;;4997421;28;20585;-72
2022/11/26 01:33:50;;;;;;;24.20;18.60;;;6.30;99.90;;;;;;4978827;28;20280;-72
2022/11/26 01:36:26;;;;;;;20.85;17.15;;;6.30;99.90;;;;;;4992471;28;20205;-72
2022/11/26 01:38:54;;;;;;;22.85;17.33;;;6.30;99.90;;;;;;4983290;28;20693;-72
2022/11/26 01:41:26;;;;;;;26.40;19.30;;;6.40;99.90;;;;;;4986371;28;20213;-72
2022/11/26 01:43:53;;;;;;;20.98;15.93;;;6.40;99.90;;;;;;4990987;28;20608;-72
2022/11/26 01:46:21;;;;;;;18.40;15.70;;;6.40;99.90;;;;;;4993016;28;20200;-72
2022/11/26 01:48:48;;;;;;;21.45;16.98;;;6.40;99.90;;;;;;4989099;28;20218;-72
2022/11/26 01:51:23;;;;;;;21.63;16.55;;;6.30;99.90;;;;;;4992074;28;20185;-72
2022/11/26 01:53:59;;;;;;;26.00;17.98;;;6.30;99.90;;;;;;4991953;28;20213;-72
2022/11/26 01:56:36;;;;;;;21.85;16.92;;;6.30;99.90;;;;;;5003797;28;20215;-72
2022/11/26 01:59:17;;;;;;;21.08;18.15;;;6.10;99.90;;;;;;4989086;28;20687;-72
2022/11/26 02:01:43;;;;;;;21.55;16.02;;;6.10;99.90;;;;;;4984171;28;20177;-72
2022/11/26 02:04:14;;;;;;;24.48;17.50;;;6.10;99.90;;;;;;4991115;28;20637;-72
2022/11/26 02:06:41;;;;;;;24.63;17.15;;;6.20;99.90;;;;;;4985481;28;20523;-72
2022/11/26 02:09:09;;;;;;;23.95;18.02;;;6.30;99.90;;;;;;4994409;28;20625;-72
2022/11/26 02:11:35;;;;;;;24.20;17.83;;;6.20;99.90;;;;;;4993314;28;20197;-72
2022/11/26 02:14:16;;;;;;;24.67;18.23;;;6.20;99.90;;;;;;5004212;28;20200;-72
2022/11/26 02:16:50;;;;;;;23.25;17.95;;;6.30;99.90;;;;;;4984732;28;20217;-72
2022/11/26 02:19:45;;;;;;;25.95;19.13;;;6.30;99.90;;;;;;4990892;28;20205;-73
2022/11/26 02:22:25;;;;;;;25.88;18.10;;;6.20;99.90;;;;;;4994677;28;20181;-72
2022/11/26 02:25:14;;;;;;;23.63;17.77;;;6.20;99.90;;;;;;4986111;28;20300;-72
2022/11/26 02:28:01;;;;;;;22.63;16.10;;;6.30;99.90;;;;;;4972372;28;20885;-72
2022/11/26 02:30:30;;;;;;;23.23;17.13;;;6.30;99.90;;;;;;5009587;28;20205;-73
2022/11/26 02:33:10;;;;;;;27.23;18.90;;;6.30;99.90;;;;;;5000971;28;20181;-73
2022/11/26 02:35:56;;;;;;;21.85;16.95;;;6.20;99.90;;;;;;4996498;28;20220;-73
2022/11/26 02:38:31;;;;;;;29.48;18.00;;;6.10;99.90;;;;;;4992756;28;20185;-72
2022/11/26 02:40:59;;;;;;;23.38;16.35;;;6.00;99.90;;;;;;5001334;28;20172;-72
2022/11/26 02:43:25;;;;;;;27.50;16.52;;;6.00;99.90;;;;;;4993651;28;20186;-71
2022/11/26 02:45:54;;;;;;;20.55;15.25;;;5.90;99.90;;;;;;5001651;28;20288;-71
2022/11/26 02:48:30;;;;;;;24.63;16.98;;;6.00;99.90;;;;;;4999669;28;20178;-71
2022/11/26 02:51:09;;;;;;;24.50;16.23;;;6.00;99.90;;;;;;4995321;28;20176;-72
2022/11/26 02:53:36;;;;;;;25.88;16.40;;;6.00;99.90;;;;;;4994797;28;20209;-72
2022/11/26 02:56:12;;;;;;;20.50;16.05;;;6.00;99.90;;;;;;4991195;28;20201;-72
2022/11/26 02:58:38;;;;;;;18.25;15.55;;;6.10;99.90;;;;;;4994599;28;20197;-71
2022/11/26 03:01:12;;;;;;;21.75;16.23;;;6.10;99.90;;;;;;4995938;28;20187;-72
2022/11/26 03:03:45;;;;;;;21.05;15.57;;;6.10;99.90;;;;;;5006680;28;20290;-72
2022/11/26 03:06:13;;;;;;;20.58;15.90;;;6.00;99.90;;;;;;4994950;28;20743;-72
2022/11/26 03:08:39;;;;;;;21.05;15.63;;;5.90;99.90;;;;;;4995057;28;20174;-71
2022/11/26 03:11:05;;;;;;;23.88;14.70;;;5.90;99.90;;;;;;4994985;28;20544;-71
2022/11/26 03:13:31;;;;;;;17.98;14.27;;;6.00;99.90;;;;;;4988623;28;20317;-71
2022/11/26 03:15:57;;;;;;;17.98;14.07;;;6.00;99.90;;;;;;4994921;28;20802;-72
2022/11/26 03:18:22;;;;;;;22.55;14.43;;;6.00;99.90;;;;;;4994646;28;20268;-72
2022/11/26 03:20:48;;;;;;;20.83;14.27;;;6.00;99.90;;;;;;4999409;28;20169;-72
2022/11/26 03:23:14;;;;;;;20.17;14.82;;;6.00;99.90;;;;;;4990782;28;20182;-72
2022/11/26 03:25:39;;;;;;;20.33;13.73;;;6.00;99.90;;;;;;4994496;28;20198;-72
2022/11/26 03:28:05;;;;;;;20.58;16.17;;;6.00;99.90;;;;;;5001444;28;20182;-71
2022/11/26 03:30:31;;;;;;;19.95;14.23;;;5.90;99.90;;;;;;4990041;28;20218;-72
2022/11/26 03:32:57;;;;;;;19.77;14.10;;;6.00;99.90;;;;;;5000379;28;20182;-71
2022/11/26 03:35:23;;;;;;;19.95;15.00;;;6.10;99.90;;;;;;5001286;28;20208;-72
2022/11/26 03:37:49;;;;;;;20.77;13.98;;;6.20;99.90;;;;;;4996202;28;20583;-71
2022/11/26 03:40:15;;;;;;;20.40;15.70;;;6.30;99.90;;;;;;4994041;28;20209;-72
2022/11/26 03:42:42;;;;;;;17.17;13.18;;;6.20;99.90;;;;;;4993971;28;20280;-72
2022/11/26 03:45:08;;;;;;;21.60;14.30;;;6.20;99.90;;;;;;4995047;28;20657;-71
2022/11/26 03:47:33;;;;;;;21.90;14.48;;;6.30;99.90;;;;;;4992233;28;20193;-71
2022/11/26 03:49:59;;;;;;;19.35;13.68;;;6.30;99.90;;;;;;4993108;28;20197;-71
2022/11/26 03:52:25;;;;;;;16.67;12.68;;;6.30;99.90;;;;;;5003449;28;20649;-72
2022/11/26 03:54:50;;;;;;;17.98;13.65;;;6.20;99.90;;;;;;4997121;28;20221;-72
2022/11/26 03:57:16;;;;;;;17.88;14.18;;;6.20;99.90;;;;;;4987523;28;20630;-71
2022/11/26 03:59:42;;;;;;;18.83;14.10;;;6.30;99.90;;;;;;4990363;28;20866;-71
2022/11/26 04:02:07;;;;;;;21.02;13.50;;;6.30;99.90;;;;;;4995930;28;20173;-71
2022/11/26 04:04:33;;;;;;;22.42;13.45;;;6.30;99.90;;;;;;4992221;28;20669;-71
2022/11/26 04:06:59;;;;;;;19.77;13.68;;;6.30;99.90;;;;;;4992013;28;20213;-71
2022/11/26 04:09:24;;;;;;;12.00;10.77;;;6.20;99.90;;;;;;5001850;28;20180;-71
2022/11/26 04:11:50;;;;;;;15.85;11.30;;;6.20;99.90;;;;;;4992281;28;20178;-71
2022/11/26 04:14:16;;;;;;;17.05;12.32;;;6.10;99.90;;;;;;4988178;28;20578;-71
2022/11/26 04:16:41;;;;;;;20.40;12.20;;;6.10;99.90;;;;;;4989816;28;20189;-71
2022/11/26 04:19:07;;;;;;;20.30;13.02;;;6.10;99.90;;;;;;4993633;28;20200;-72
2022/11/26 04:21:33;;;;;;;17.23;11.80;;;6.20;99.90;;;;;;4992346;28;20755;-71
2022/11/26 04:23:58;;;;;;;19.33;12.23;;;6.10;99.90;;;;;;5001996;28;20182;-71
2022/11/26 04:26:24;;;;;;;18.63;12.13;;;6.20;99.90;;;;;;4995593;28;20202;-71
2022/11/26 04:28:49;;;;;;;16.58;13.75;;;6.20;99.90;;;;;;4993511;28;20272;-71
2022/11/26 04:31:16;;;;;;;18.25;13.38;;;6.30;99.90;;;;;;4991356;28;20648;-71
2022/11/26 04:33:41;;;;;;;19.25;12.32;;;6.30;99.90;;;;;;4984934;28;20714;-71
2022/11/26 04:36:07;;;;;;;15.77;12.48;;;6.30;99.90;;;;;;5005448;28;20209;-71
2022/11/26 04:38:33;;;;;;;18.13;12.77;;;6.40;99.90;;;;;;5001510;28;20236;-71
2022/11/26 04:40:59;;;;;;;18.35;12.75;;;6.30;99.90;;;;;;4992173;28;20233;-72
2022/11/26 04:43:25;;;;;;;17.48;12.32;;;6.30;99.90;;;;;;4992760;28;20193;-72
2022/11/26 04:45:51;;;;;;;17.52;11.40;;;6.20;99.90;;;;;;4994416;28;20831;-71
2022/11/26 04:48:16;;;;;;;15.23;12.00;;;6.20;99.90;;;;;;4993287;28;20189;-71
2022/11/26 04:50:42;;;;;;;17.67;12.45;;;6.20;99.90;;;;;;4987067;28;20252;-72
2022/11/26 04:53:07;;;;;;;20.42;14.25;;;6.10;99.90;;;;;;5003340;28;20200;-72
2022/11/26 04:55:33;;;;;;;18.05;13.30;;;6.10;99.90;;;;;;4997381;28;20698;-72
2022/11/26 04:57:58;;;;;;;18.35;13.93;;;6.10;99.90;;;;;;4992863;28;20228;-72
2022/11/26 05:00:24;;;;;;;16.38;12.13;;;6.00;99.90;;;;;;4992736;28;20293;-72
2022/11/26 05:02:50;;;;;;;15.45;11.65;;;6.00;99.90;;;;;;4986670;28;20193;-72
2022/11/26 05:05:16;;;;;;;16.67;12.25;;;6.00;99.90;;;;;;4992630;28;20198;-71
2022/11/26 05:07:41;;;;;;;14.70;12.55;;;6.10;99.90;;;;;;4994465;28;20240;-71
2022/11/26 05:10:08;;;;;;;19.80;13.40;;;6.10;99.90;;;;;;4992174;28;20198;-72
2022/11/26 05:12:34;;;;;;;24.92;12.45;;;6.00;99.90;;;;;;4992566;28;20233;-72
2022/11/26 05:15:00;;;;;;;18.60;11.63;;;6.10;99.90;;;;;;4992438;28;20198;-72
2022/11/26 05:17:26;;;;;;;21.13;12.00;;;6.10;99.90;;;;;;4992570;28;20177;-72
2022/11/26 05:19:52;;;;;;;15.85;13.65;;;6.10;99.90;;;;;;4990379;28;20682;-72
2022/11/26 05:22:18;;;;;;;20.33;12.18;;;6.10;99.90;;;;;;4992609;28;20208;-72
2022/11/26 05:24:43;;;;;;;16.67;11.68;;;6.10;99.90;;;;;;4990876;28;20619;-72
2022/11/26 05:27:09;;;;;;;13.40;10.50;;;6.10;99.90;;;;;;5002406;28;20532;-72
2022/11/26 05:29:34;;;;;;;15.40;10.93;;;6.10;99.90;;;;;;4994810;28;20189;-72
2022/11/26 05:32:00;;;;;;;18.95;11.85;;;6.10;99.90;;;;;;4987156;28;20181;-72
2022/11/26 05:34:26;;;;;;;19.58;12.40;;;6.10;99.90;;;;;;4998278;28;20268;-72
2022/11/26 05:36:51;;;;;;;16.95;11.43;;;6.10;99.90;;;;;;4995485;28;20555;-72
2022/11/26 05:39:18;;;;;;;17.80;11.52;;;6.20;99.90;;;;;;4992101;28;20213;-72
2022/11/26 05:41:43;;;;;;;14.65;9.45;;;6.10;99.90;;;;;;4992200;28;20648;-72
2022/11/26 05:44:09;;;;;;;19.23;11.52;;;6.20;99.90;;;;;;4994213;28;20335;-71
2022/11/26 05:46:38;;;;;;;14.40;11.98;;;6.30;99.90;;;;;;4994472;28;20564;-72
2022/11/26 05:49:04;;;;;;;16.45;10.93;;;6.40;99.90;;;;;;4991849;28;20174;-71
2022/11/26 05:51:29;;;;;;;17.02;11.40;;;6.40;99.90;;;;;;4988342;28;20695;-72
2022/11/26 05:53:55;;;;;;;16.75;11.55;;;6.50;99.90;;;;;;4989123;28;20196;-71
2022/11/26 05:56:21;;;;;;;20.33;10.40;;;6.60;99.90;;;;;;4985120;28;20238;-71
2022/11/26 05:58:46;;;;;;;17.70;10.93;;;6.60;99.90;;;;;;4989860;28;20204;-71
2022/11/26 06:01:12;;;;;;;14.85;10.38;;;6.60;99.90;;;;;;4983638;28;20191;-72
2022/11/26 06:03:38;;;;;;;18.83;11.10;;;6.60;99.90;;;;;;4984413;28;20269;-71
2022/11/26 06:06:04;;;;;;;16.92;10.32;;;6.60;99.90;;;;;;4985658;28;20921;-71
2022/11/26 06:08:29;;;;;;;16.25;11.25;;;6.60;99.90;;;;;;4989542;28;20190;-71
2022/11/26 06:10:55;;;;;;;15.18;10.82;;;6.70;99.90;;;;;;4985020;28;20236;-71
2022/11/26 06:13:21;;;;;;;14.45;10.32;;;6.60;99.90;;;;;;4988438;28;20585;-72
2022/11/26 06:15:46;;;;;;;15.45;10.15;;;6.60;99.90;;;;;;4986616;28;20209;-72
2022/11/26 06:18:12;;;;;;;14.15;9.90;;;6.50;99.90;;;;;;4986923;28;20220;-72
2022/11/26 06:20:38;;;;;;;15.90;9.73;;;6.50;99.90;;;;;;4985468;28;20208;-72
2022/11/26 06:23:04;;;;;;;13.32;9.63;;;6.40;99.90;;;;;;4991144;28;20188;-72
2022/11/26 06:25:29;;;;;;;15.60;9.80;;;6.40;99.90;;;;;;4984190;28;20248;-71
2022/11/26 06:27:55;;;;;;;14.73;9.45;;;6.50;99.90;;;;;;4986307;28;20174;-72
2022/11/26 06:30:21;;;;;;;11.75;9.63;;;6.50;99.90;;;;;;4981811;28;20237;-72
2022/11/26 06:32:47;;;;;;;18.58;10.52;;;6.50;99.90;;;;;;4980189;28;20194;-71
2022/11/26 06:35:13;;;;;;;16.90;10.30;;;6.50;99.90;;;;;;4986565;28;20202;-72
2022/11/26 06:37:39;;;;;;;18.23;10.73;;;6.60;99.90;;;;;;4986770;28;20232;-71
2022/11/26 06:40:05;;;;;;;21.25;10.60;;;6.50;99.90;;;;;;4986353;28;20236;-71
2022/11/26 06:42:31;;;;;;;12.30;10.20;;;6.40;99.90;;;;;;4985327;28;20723;-71
2022/11/26 06:44:57;;;;;;;16.50;10.23;;;6.40;99.90;;;;;;4988048;28;20194;-71
2022/11/26 06:47:22;;;;;;;18.30;10.90;;;6.30;99.90;;;;;;4986285;28;20181;-71
2022/11/26 06:49:48;;;;;;;15.98;10.23;;;6.20;99.90;;;;;;4983537;28;20641;-71
2022/11/26 06:52:13;;;;;;;21.42;11.60;;;6.10;99.90;;;;;;4986150;28;20240;-72
2022/11/26 06:54:39;;;;;;;13.98;10.30;;;6.10;99.90;;;;;;4986001;28;20201;-71
2022/11/26 06:57:04;;;;;;;18.00;11.00;;;6.10;99.90;;;;;;4989468;28;20189;-71
2022/11/26 06:59:30;;;;;;;15.65;11.70;;;6.00;99.90;;;;;;4991674;28;20198;-72
2022/11/26 07:01:56;;;;;;;17.83;11.00;;;6.00;99.90;;;;;;4993187;28;20209;-72
2022/11/26 07:04:22;;;;;;;19.15;11.50;;;6.00;99.90;;;;;;4985620;28;20182;-71
2022/11/26 07:06:48;;;;;;;22.90;12.63;;;6.00;99.90;;;;;;4995455;28;20177;-71
2022/11/26 07:09:14;;;;;;;20.00;10.75;;;6.00;99.90;;;;;;4984990;28;20189;-72
2022/11/26 07:11:41;;;;;;;14.15;10.48;;;6.00;99.90;;;;;;4991658;28;20587;-71
2022/11/26 07:14:07;;;;;;;17.55;11.73;;;5.90;99.90;;;;;;4988625;28;20182;-72
2022/11/26 07:16:33;;;;;;;18.77;11.30;;;6.00;99.90;;;;;;4992226;28;20207;-71
2022/11/26 07:18:59;;;;;;;20.77;11.10;;;6.10;99.90;;;;;;4993245;28;20308;-71
2022/11/26 07:21:26;;;;;;;13.60;9.98;;;6.20;99.90;;;;;;4992638;28;20277;-72
2022/11/26 07:23:53;;;;;;;22.30;12.30;;;6.30;99.90;;;;;;4992970;28;20777;-72
2022/11/26 07:26:20;;;;;;;23.63;10.73;;;6.30;99.90;;;;;;4994530;28;20202;-72
2022/11/26 07:28:47;;;;;;;17.30;11.93;;;6.30;99.90;;;;;;4994573;28;20182;-71
2022/11/26 07:31:15;;;;;;;18.65;11.48;;;6.30;99.90;;;;;;4994658;28;20320;-72
2022/11/26 07:33:41;;;;;;;13.98;10.50;;;6.30;99.90;;;;;;4986977;28;20565;-72
2022/11/26 07:36:13;;;;;;;17.05;10.10;;;6.50;99.90;;;;;;4994427;28;20232;-72
2022/11/26 07:38:39;;;;;;;19.88;11.77;;;6.70;99.90;;;;;;5001420;28;20198;-72
2022/11/26 07:41:06;;;;;;;13.60;9.98;;;7.00;99.90;;;;;;4986837;28;20178;-73
2022/11/26 07:43:36;;;;;;;20.23;11.52;;;7.10;99.90;;;;;;4989208;28;20198;-72
2022/11/26 07:46:05;;;;;;;16.45;11.95;;;7.40;99.90;;;;;;4988205;28;20688;-72
2022/11/26 07:48:32;;;;;;;18.45;11.77;;;7.50;99.90;;;;;;4992447;28;20233;-71
2022/11/26 07:50:59;;;;;;;18.67;11.93;;;7.60;99.90;;;;;;4994014;28;20672;-72
2022/11/26 07:53:28;;;;;;;19.67;11.70;;;7.70;99.90;;;;;;4993498;28;20190;-72
2022/11/26 07:55:54;;;;;;;22.05;10.93;;;7.70;99.90;;;;;;5000720;28;20205;-72
2022/11/26 07:58:19;;;;;;;15.98;11.45;;;7.80;99.90;;;;;;4993284;28;20185;-73
2022/11/26 08:00:45;;;;;;;12.75;11.18;;;7.80;99.90;;;;;;4996268;28;20204;-72
2022/11/26 08:03:11;;;;;;;16.52;11.15;;;7.90;99.90;;;;;;4990824;28;20197;-72
2022/11/26 08:05:41;;;;;;;15.93;10.60;;;7.90;99.90;;;;;;4994946;28;20233;-72
2022/11/26 08:08:06;;;;;;;14.05;10.63;;;8.00;99.90;;;;;;4994297;28;20174;-71
2022/11/26 08:10:32;;;;;;;12.82;11.52;;;8.00;99.90;;;;;;4988822;28;20186;-72
2022/11/26 08:12:58;;;;;;;17.42;9.73;;;8.10;99.90;;;;;;5001469;28;20177;-72
2022/11/26 08:15:23;;;;;;;12.05;9.38;;;8.20;99.90;;;;;;4993472;28;20213;-71
2022/11/26 08:17:53;;;;;;;10.05;8.40;;;8.20;99.90;;;;;;4993611;28;20653;-71
2022/11/26 08:20:19;;;;;;;11.27;9.25;;;8.30;99.90;;;;;;4991018;28;20221;-75
2022/11/26 08:22:44;;;;;;;14.25;9.05;;;8.30;99.90;;;;;;4994740;28;20186;-75
2022/11/26 08:25:10;;;;;;;12.77;9.07;;;8.40;99.90;;;;;;4999504;28;20194;-77
2022/11/26 08:27:36;;;;;;;10.43;9.32;;;8.40;99.90;;;;;;4999273;28;20183;-75
2022/11/26 08:30:03;;;;;;;9.80;8.07;;;8.40;99.90;;;;;;5011905;28;20231;-75
2022/11/26 08:32:28;;;;;;;13.57;9.50;;;8.40;99.90;;;;;;4984775;28;20666;-77
2022/11/26 08:34:54;;;;;;;13.75;9.60;;;8.50;99.90;;;;;;4998983;28;20229;-76
2022/11/26 08:37:19;;;;;;;14.82;8.73;;;8.50;99.90;;;;;;4988009;28;20645;-76
2022/11/26 08:39:45;;;;;;;14.63;9.77;;;8.60;99.90;;;;;;4994382;28;20202;-73
2022/11/26 08:42:10;;;;;;;15.80;9.93;;;8.70;99.90;;;;;;4990340;28;20236;-73
2022/11/26 08:44:36;;;;;;;12.60;9.80;;;8.80;99.90;;;;;;5009487;28;20738;-73
2022/11/26 08:47:02;;;;;;;12.75;10.38;;;8.90;99.90;;;;;;4993100;28;20244;-71
2022/11/26 08:49:27;;;;;;;14.70;9.18;;;8.90;99.90;;;;;;4991983;28;20177;-72
2022/11/26 08:51:55;;;;;;;12.52;9.13;;;9.00;99.90;;;;;;4994011;28;20192;-73
2022/11/26 08:54:21;;;;;;;15.13;9.43;;;9.10;99.90;;;;;;4995111;28;20178;-75
2022/11/26 08:56:46;;;;;;;11.68;9.55;;;9.20;99.90;;;;;;4990221;28;20580;-72
2022/11/26 08:59:12;;;;;;;12.52;9.45;;;9.30;99.90;;;;;;5002342;28;20750;-73
2022/11/26 09:01:38;;;;;;;10.20;7.75;;;9.40;99.90;;;;;;4999513;28;20589;-72
2022/11/26 09:04:03;;;;;;;9.60;7.20;;;9.50;99.90;;;;;;4988545;28;20178;-74
2022/11/26 09:06:31;;;;;;;9.07;6.72;;;9.50;99.90;;;;;;4992359;28;20703;-73
2022/11/26 09:09:11;;;;;;;15.88;8.43;;;9.50;99.90;;;;;;4992324;28;20205;-72
2022/11/26 09:11:47;;;;;;;10.73;8.23;;;9.60;99.90;;;;;;4986083;28;20190;-72
2022/11/26 09:14:15;;;;;;;14.52;7.95;;;9.60;99.90;;;;;;4984083;28;20616;-76
2022/11/26 09:16:40;;;;;;;9.90;7.70;;;9.70;99.90;;;;;;4998301;28;20182;-77
2022/11/26 09:19:07;;;;;;;12.82;8.13;;;9.80;99.90;;;;;;4996038;28;20200;-79
2022/11/26 09:21:34;;;;;;;9.98;7.55;;;9.80;99.90;;;;;;4998574;28;20638;-77
2022/11/26 09:24:00;;;;;;;8.77;7.88;;;9.80;99.90;;;;;;4995406;28;20228;-75
2022/11/26 09:26:26;;;;;;;10.00;7.72;;;9.90;99.90;;;;;;4993190;28;20213;-75
2022/11/26 09:28:51;;;;;;;9.98;7.22;;;10.00;99.90;;;;;;4992485;28;20185;-75
2022/11/26 09:31:17;;;;;;;10.20;6.65;;;10.00;99.90;;;;;;4991221;28;21580;-77
2022/11/26 09:33:44;;;;;;;8.35;6.35;;;10.00;99.90;;;;;;4990847;28;20225;-76
2022/11/26 09:36:12;;;;;;;7.80;6.97;;;9.80;99.90;;;;;;4998056;28;20531;-77
2022/11/26 09:38:38;;;;;;;10.93;7.88;;;9.70;99.90;;;;;;4995997;28;20193;-75
2022/11/26 09:41:32;;;;;;;11.75;8.25;;;9.50;99.90;;;;;;4993608;28;20257;-74
2022/11/26 09:44:31;;;;;;;9.65;7.70;;;9.50;99.90;;;;;;4994228;28;20217;-75
2022/11/26 09:47:22;;;;;;;9.77;7.53;;;9.60;99.90;;;;;;4989893;28;20174;-76
2022/11/26 09:50:17;;;;;;;10.88;7.15;;;9.70;99.90;;;;;;4987081;28;20193;-74
2022/11/26 09:52:56;;;;;;;6.93;5.25;;;9.80;99.90;;;;;;4994313;28;20181;-74
2022/11/26 09:55:31;;;;;;;6.70;5.95;;;9.80;99.90;;;;;;5000623;28;20209;-74
2022/11/26 09:58:11;;;;;;;6.72;5.97;;;9.80;99.90;;;;;;4992318;28;20181;-75
2022/11/26 10:00:40;;;;;;;9.00;6.38;;;9.90;99.90;;;;;;4984972;28;20263;-74
2022/11/26 10:03:35;;;;;;;13.88;7.43;;;9.70;99.90;;;;;;4990127;28;20182;-74
2022/11/26 10:06:04;;;;;;;8.80;6.97;;;9.70;99.90;;;;;;4982682;28;20588;-75
2022/11/26 10:08:58;;;;;;;9.30;6.45;;;9.60;99.90;;;;;;4995318;28;20219;-77
2022/11/26 10:11:46;;;;;;;8.98;6.13;;;9.40;99.90;;;;;;5006672;28;20230;-78
2022/11/26 10:14:33;;;;;;;10.20;6.78;;;9.30;99.90;;;;;;4992013;28;20252;-77
2022/11/26 10:17:29;;;;;;;10.30;6.88;;;9.40;99.90;;;;;;4984100;28;20169;-75
2022/11/26 10:20:27;;;;;;;10.52;6.47;;;9.40;99.90;;;;;;4985981;28;20233;-76
2022/11/26 10:23:10;;;;;;;9.13;6.43;;;9.60;99.90;;;;;;4962665;28;20196;-76
2022/11/26 10:26:31;;;;;;;9.23;6.70;;;9.60;99.90;;;;;;5001562;28;20205;-75
2022/11/26 10:29:15;;;;;;;13.30;7.35;;;9.80;99.90;;;;;;4973580;28;20605;-76
2022/11/26 10:31:44;;;;;;;12.50;7.18;;;9.90;99.90;;;;;;4978010;28;20246;-76
2022/11/26 10:34:26;;;;;;;7.10;6.35;;;10.00;99.90;;;;;;4975088;28;20545;-76
2022/11/26 10:36:51;;;;;;;13.68;7.40;;;10.10;99.90;;;;;;4973769;28;20182;-75
2022/11/26 10:39:19;;;;;;;8.75;6.85;;;10.10;99.90;;;;;;4978117;28;20210;-74
2022/11/26 10:41:45;;;;;;;10.40;6.75;;;10.20;99.90;;;;;;4982479;28;20169;-76
2022/11/26 10:44:35;;;;;;;7.68;6.35;;;11.30;99.90;;;;;;4996231;28;20222;-75
2022/11/26 10:47:20;;;;;;;9.43;5.90;;;13.90;99.90;;;;;;4990020;28;20174;-76
2022/11/26 10:49:47;;;;;;;6.55;5.53;;;15.10;99.90;;;;;;4985751;28;20170;-75
2022/11/26 10:52:16;;;;;;;7.45;5.50;;;16.30;99.90;;;;;;4981739;28;20190;-78
2022/11/26 10:54:43;;;;;;;5.97;4.55;;;18.40;99.90;;;;;;4983891;28;20213;-76
2022/11/26 10:57:09;;;;;;;6.10;4.72;;;20.10;99.90;;;;;;4980307;28;20174;-77
2022/11/26 10:59:50;;;;;;;6.68;4.70;;;21.50;99.90;;;;;;4983437;28;20285;-78
2022/11/26 11:02:19;;;;;;;6.82;3.97;;;22.70;95.60;;;;;;4987759;28;20220;-77
2022/11/26 11:04:47;;;;;;;4.53;3.80;;;23.60;92.30;;;;;;4999505;28;20221;-77
2022/11/26 11:07:41;;;;;;;7.35;3.90;;;23.40;86.40;;;;;;4995178;28;20512;-78
2022/11/26 11:10:07;;;;;;;4.15;3.75;;;22.20;86.00;;;;;;4989949;28;20632;-79
2022/11/26 11:12:33;;;;;;;5.85;4.55;;;22.00;87.40;;;;;;5004921;28;20264;-78
2022/11/26 11:15:17;;;;;;;4.90;4.00;;;21.80;84.10;;;;;;5005048;28;20198;-78
2022/11/26 11:17:44;;;;;;;6.38;4.57;;;20.50;89.10;;;;;;4995349;28;20178;-78
2022/11/26 11:20:16;;;;;;;6.40;3.67;;;19.20;91.10;;;;;;5001257;28;20197;-77
2022/11/26 11:22:43;;;;;;;4.65;3.50;;;18.10;94.50;;;;;;4995986;28;20672;-78
2022/11/26 11:25:33;;;;;;;4.57;4.18;;;18.50;93.60;;;;;;4993726;28;20217;-77
2022/11/26 11:28:03;;;;;;;5.63;4.25;;;19.30;92.50;;;;;;4984212;28;20174;-78
2022/11/26 11:30:33;;;;;;;6.47;4.47;;;19.20;92.80;;;;;;4994921;28;20166;-77
2022/11/26 11:33:19;;;;;;;4.03;3.65;;;19.50;92.40;;;;;;4992022;28;20254;-77
2022/11/26 11:36:00;;;;;;;5.13;4.03;;;20.50;92.40;;;;;;4988871;28;20208;-77
2022/11/26 11:38:47;;;;;;;4.40;3.90;;;22.10;90.40;;;;;;5001354;28;20192;-78
2022/11/26 11:41:40;;;;;;;5.15;3.35;;;24.20;81.30;;;;;;4989326;28;20233;-78
2022/11/26 11:44:16;;;;;;;3.30;3.00;;;26.00;75.30;;;;;;4979356;28;20206;-78
2022/11/26 11:47:16;;;;;;;3.45;2.90;;;26.40;71.20;;;;;;4978576;28;20649;-78
2022/11/26 11:50:03;;;;;;;3.45;3.00;;;25.20;72.00;;;;;;4984948;28;20186;-78
2022/11/26 11:52:45;;;;;;;3.40;2.95;;;24.30;70.70;;;;;;4993280;28;20690;-77
2022/11/26 11:55:45;;;;;;;2.97;2.67;;;22.00;74.20;;;;;;4993889;28;20202;-77
2022/11/26 11:58:46;;;;;;;6.30;3.60;;;19.30;80.50;;;;;;4994139;28;20226;-78
2022/11/26 12:01:36;;;;;;;5.40;4.25;;;16.80;90.10;;;;;;4989086;28;20713;-75
2022/11/26 12:04:41;;;;;;;4.22;3.80;;;15.10;94.00;;;;;;4976381;28;20183;-76
2022/11/26 12:07:13;;;;;;;5.28;3.00;;;14.70;97.40;;;;;;4985676;28;20265;-79
2022/11/26 12:09:57;;;;;;;4.40;3.92;;;15.00;96.70;;;;;;4993808;28;20178;-79
2022/11/26 12:12:37;;;;;;;5.00;3.60;;;14.80;96.90;;;;;;4989705;28;20206;-79
2022/11/26 12:15:17;;;;;;;4.50;3.63;;;16.20;96.90;;;;;;4980595;28;20199;-77
2022/11/26 12:17:59;;;;;;;4.07;3.58;;;18.20;92.70;;;;;;4979860;28;20305;-78
2022/11/26 12:20:43;;;;;;;5.35;3.20;;;19.70;89.80;;;;;;4992897;28;20284;-79
2022/11/26 12:23:35;;;;;;;3.97;3.42;;;20.30;86.00;;;;;;4995729;28;20520;-81
2022/11/26 12:26:12;;;;;;;4.60;3.05;;;21.00;85.20;;;;;;4991085;28;20202;-80
2022/11/26 12:28:59;;;;;;;4.65;3.17;;;21.50;82.30;;;;;;4996175;28;20208;-79
2022/11/26 12:31:34;;;;;;;5.22;3.47;;;21.40;77.70;;;;;;4989408;28;20186;-80
2022/11/26 12:34:30;;;;;;;4.32;3.10;;;21.00;80.50;;;;;;4995648;28;20186;-82
2022/11/26 12:37:11;;;;;;;3.05;2.83;;;21.40;78.40;;;;;;4979236;28;20257;-77
2022/11/26 12:40:25;;;;;;;5.65;3.00;;;21.70;76.20;;;;;;4985376;28;20720;-76
2022/11/26 12:43:12;;;;;;;3.55;3.35;;;21.70;73.90;;;;;;4947341;28;20206;-76
2022/11/26 12:45:48;;;;;;;5.28;3.92;;;21.60;75.50;;;;;;4979295;28;20718;-76
2022/11/26 12:48:16;;;;;;;4.82;4.28;;;21.30;76.10;;;;;;4980002;28;20194;-76
2022/11/26 12:50:49;;;;;;;4.65;3.40;;;19.90;76.50;;;;;;4980328;28;20186;-76
2022/11/26 12:53:37;;;;;;;4.00;3.00;;;18.40;80.60;;;;;;4986263;28;20555;-77
2022/11/26 12:56:05;;;;;;;4.07;3.35;;;17.20;85.80;;;;;;4976687;28;20256;-76
2022/11/26 12:58:39;;;;;;;3.53;3.17;;;17.00;85.70;;;;;;4974729;28;20531;-76
2022/11/26 13:01:08;;;;;;;3.55;3.25;;;16.70;87.20;;;;;;4971496;28;20186;-77